To NAV CANADA Home Page Login to a new session Search on AWWS site Disclaimer Vers la page française équivalente Tips FAQ What's new on the site To the Forecasts and Observations / NOTAM section To "File a Flight Plan" website Publications and other links Update of the User's profile FIC Telephone Numbers My Weather Data Folder Route Weather Data Regional Weather Data Local Weather Data To the Forecasts and Observations / NOTAM section
Request Generated 07/21/2018 at 19:11:46 UTC . Weather information available at that time is displayed.


Save this request

METAR/TAF

WINNIPEG/JAMES ARMSTRONG RICHARDSON INTL/MB    

METAR CYWG 211900Z 04008KT 010V110 15SM SCT050 24/12 A3013 RMK CU4 SLP205 DENSITY ALT 1800FT=
METAR CYWG 211800Z VRB05KT 15SM SCT049 25/13 A3013 RMK CU4 SLP207 DENSITY ALT 1900FT=
METAR CYWG 211700Z 05006KT 030V120 15SM SCT045 24/14 A3015 RMK CU3 SLP211 DENSITY ALT 1700FT=

TAF CYWG 211743Z 2118/2218 05006KT P6SM SCT040
BECMG 2118/2120 10010KT
FM220400 14010KT P6SM SKC
FM221600 16012G22KT P6SM SCT040
RMK NXT FCST BY 220000Z=

PORTAGE LA PRAIRIE/SOUTHPORT/MB    

CYPG - METAR not available

*** REMARK        : Forecast period has ended; this was the last TAF issued
*** REMARQUE : La période de prévision est échue; ceci était le dernier TAF qui a été émis
TAF AMD CYPG 202207Z 2018/2106 FCST CNCLD DUE END OF FLYING PROGRAM
RMK NXT FCST WILL BE ISSUED AT 231215Z=

BRANDON MUNICIPALITY/MB    

METAR CYBR 211900Z 13010G16KT 090V170 15SM BKN055 26/14 A3012 RMK SC5 SLP203 DENSITY ALT 2700FT=
METAR CYBR 211800Z 14006KT 100V170 20SM BKN048 BKN250 26/14 A3012 RMK SC5CI1 CI TR SLP206 DENSITY ALT 2700FT=
METAR CYBR 211700Z 12007KT 090V170 15SM SCT040TCU 24/14 A3014 RMK TCU4 SLP211 DENSITY ALT 2500FT=

TAF CYBR 211743Z 2118/2206 12010KT P6SM SCT040
RMK NXT FCST BY 220000Z=

DAUPHIN (LT. COL W.G.(BILLY) BARKER, VC)/M    (show WxCam)

METAR CYDN 211900Z AUTO 14008KT 9SM CLR 26/ A3011 RMK TD MISG SLP200 DENSITY ALT 2200FT=
METAR CYDN 211800Z AUTO 14006KT 100V190 9SM CLR 25/ A3013 RMK TD MISG SLP206 DENSITY ALT 2100FT=
METAR CYDN 211700Z AUTO 15006KT 110V180 9SM CLR 24/ A3014 RMK TD MISG SLP210 DENSITY ALT 2000FT=

TAF CYDN 211743Z 2118/2206 15006KT P6SM FEW220
BECMG 2118/2120 10015KT
BECMG 2202/2204 15008KT
RMK FCST BASED ON AUTO OBS. NXT FCST BY 220000Z=

YORKTON MUNICIPALITY/SK    (show WxCam)

METAR CYQV 211900Z AUTO 14014G22KT 9SM BKN140 BKN160 OVC190 22/13 A3006 RMK SLP184 DENSITY ALT 2700FT=
METAR CYQV 211800Z AUTO 13013G18KT 9SM SCT150 BKN170 23/13 A3009 RMK PRESFR SLP195 DENSITY ALT 2600FT=
METAR CYQV 211700Z AUTO 16010G16KT 110V180 9SM SCT210 SCT230 23/13 A3012 RMK SLP205 DENSITY ALT 2700FT=

TAF CYQV 211743Z 2118/2206 16012KT P6SM SCT200
FM220200 13012KT P6SM BKN120
RMK FCST BASED ON AUTO OBS. NXT FCST BY 220000Z=

SASKATOON/JOHN G. DIEFENBAKER INTL/SK    

METAR CYXE 211900Z 16020G32KT 15SM SCT150 24/15 A2993 RMK ACC4 SLP136 DENSITY ALT 3100FT=
METAR CYXE 211800Z 15023G29KT 15SM FEW030 BKN150 22/15 A2993 RMK CU1ACC5 SLP139 DENSITY ALT 2900FT=
METAR CYXE 211700Z 15019G27KT 15SM BKN160 22/14 A2991 RMK ACC5 SLP131 DENSITY ALT 2900FT=

TAF CYXE 211743Z 2118/2218 15020G30KT P6SM BKN160 TEMPO 2118/2122
P6SM VCTS BKN120CB OVC220
FM212200 16020G30KT P6SM BKN030 TEMPO 2122/2124 BKN020
FM220000 15015KT P6SM FEW120 SCT220
BECMG 2204/2206 16008KT
FM220900 30012KT P6SM SCT012 BKN240 TEMPO 2209/2212 BKN012 OVC080
FM221200 26010KT P6SM BKN012
FM221600 27015G25KT P6SM BKN030
RMK NXT FCST BY 220000Z=


Your time UTC time
Weather data provided by Environment Canada and NAV CANADA